createdAt,value
2017-08-22T00:00:17.728Z,85.80
2017-08-22T00:02:46.422Z,86.00
2017-08-22T00:05:14.838Z,85.90
2017-08-22T00:07:43.250Z,86.10
2017-08-22T00:10:11.853Z,86.10
2017-08-22T00:12:40.337Z,86.10
2017-08-22T00:15:08.757Z,86.00
2017-08-22T00:17:37.195Z,86.30
2017-08-22T00:20:06.397Z,86.20
2017-08-22T00:22:34.825Z,86.20
2017-08-22T00:25:03.264Z,86.20
2017-08-22T00:27:31.689Z,86.00
2017-08-22T00:30:00.113Z,86.40
2017-08-22T00:32:28.892Z,85.60
2017-08-22T00:34:57.296Z,85.60
2017-08-22T00:37:25.712Z,85.80
2017-08-22T00:39:54.181Z,86.00
2017-08-22T00:42:22.609Z,86.20
2017-08-22T00:44:51.062Z,86.10
2017-08-22T00:47:19.593Z,86.20
2017-08-22T00:49:48.005Z,86.70
2017-08-22T00:52:16.421Z,86.80
2017-08-22T00:54:45.212Z,86.80
2017-08-22T00:57:13.630Z,86.90
2017-08-22T00:59:41.704Z,87.00
2017-08-22T01:02:10.357Z,86.80
2017-08-22T01:04:38.776Z,86.80
2017-08-22T01:07:06.491Z,86.90
2017-08-22T01:09:35.101Z,87.20
2017-08-22T01:12:03.175Z,86.80
2017-08-22T01:14:31.921Z,86.90
2017-08-22T01:17:00.366Z,87.40
2017-08-22T01:19:28.771Z,87.70
2017-08-22T01:21:57.193Z,87.70
2017-08-22T01:24:25.444Z,87.60
2017-08-22T01:26:53.844Z,87.50
2017-08-22T01:29:21.936Z,87.60
2017-08-22T01:31:50.387Z,87.40
2017-08-22T01:34:18.517Z,87.50
2017-08-22T01:36:46.590Z,87.70
2017-08-22T01:39:14.888Z,87.20
2017-08-22T01:41:43.320Z,87.30
2017-08-22T01:44:11.400Z,87.20
2017-08-22T01:46:39.882Z,87.80
2017-08-22T01:49:08.313Z,87.70
2017-08-22T01:51:36.753Z,87.30
2017-08-22T01:54:05.226Z,87.50
2017-08-22T01:56:33.658Z,87.60
2017-08-22T01:59:02.088Z,87.80
2017-08-22T02:01:30.697Z,87.50
2017-08-22T02:03:59.134Z,87.50
2017-08-22T02:06:27.549Z,87.50
2017-08-22T02:08:56.010Z,87.30
2017-08-22T02:11:24.447Z,87.50
2017-08-22T02:13:52.856Z,87.70
2017-08-22T02:16:21.480Z,87.50
2017-08-22T02:18:49.883Z,87.80
2017-08-22T02:21:18.306Z,87.90
2017-08-22T02:23:46.761Z,88.20
2017-08-22T02:26:15.179Z,87.90
2017-08-22T02:28:43.592Z,87.80
2017-08-22T02:31:12.162Z,87.90
2017-08-22T02:33:40.616Z,87.90
2017-08-22T02:36:09.800Z,88.20
2017-08-22T02:38:38.415Z,88.20
2017-08-22T02:41:06.836Z,88.30
2017-08-22T02:43:35.258Z,88.40
2017-08-22T02:46:03.874Z,88.70
2017-08-22T02:48:32.293Z,89.30
2017-08-22T02:51:00.711Z,88.50
2017-08-22T02:53:29.176Z,88.70
2017-08-22T02:55:57.594Z,88.90
2017-08-22T02:58:25.811Z,89.00
2017-08-22T03:00:54.425Z,89.20
2017-08-22T03:03:22.829Z,89.60
2017-08-22T03:05:51.252Z,89.80
2017-08-22T03:08:19.868Z,89.20
2017-08-22T03:10:48.284Z,89.20
2017-08-22T03:13:16.696Z,89.90
2017-08-22T03:15:45.154Z,89.10
2017-08-22T03:18:13.577Z,88.60
2017-08-22T03:20:41.993Z,88.60
2017-08-22T03:23:10.565Z,88.50
2017-08-22T03:25:38.984Z,88.70
2017-08-22T03:28:07.396Z,88.90
2017-08-22T03:30:35.838Z,89.30
2017-08-22T03:33:04.946Z,89.30
2017-08-22T03:35:33.349Z,89.20
2017-08-22T03:38:01.801Z,89.40
2017-08-22T03:40:30.220Z,89.40
2017-08-22T03:42:58.640Z,89.50
2017-08-22T03:45:27.268Z,89.20
2017-08-22T03:47:55.706Z,89.20
2017-08-22T03:50:24.107Z,89.00
2017-08-22T03:52:52.913Z,88.90
2017-08-22T03:55:21.324Z,89.90
2017-08-22T03:57:49.728Z,89.30
2017-08-22T04:00:18.392Z,89.40
2017-08-22T04:02:46.820Z,89.90
2017-08-22T04:05:15.220Z,89.90
2017-08-22T04:07:43.906Z,89.80
2017-08-22T04:10:12.339Z,89.40
2017-08-22T04:12:40.781Z,89.60
2017-08-22T04:15:09.443Z,90.00
2017-08-22T04:17:37.881Z,90.10
2017-08-22T04:20:06.296Z,90.30
2017-08-22T04:22:34.738Z,90.40
2017-08-22T04:25:03.188Z,90.70
2017-08-22T04:27:31.247Z,90.80
2017-08-22T04:29:59.737Z,90.90
2017-08-22T04:32:28.192Z,90.80
2017-08-22T04:34:56.612Z,90.90
2017-08-22T04:37:25.928Z,90.80
2017-08-22T04:39:54.336Z,90.60
2017-08-22T04:42:22.750Z,90.50
2017-08-22T04:44:51.191Z,90.20
2017-08-22T04:47:19.605Z,90.10
2017-08-22T04:49:48.037Z,89.90
2017-08-22T04:52:16.502Z,89.60
2017-08-22T04:54:44.916Z,90.20
2017-08-22T04:57:13.328Z,89.80
2017-08-22T04:59:41.983Z,90.00
2017-08-22T05:02:10.412Z,90.10
2017-08-22T05:04:38.821Z,90.20
2017-08-22T05:07:07.481Z,90.30
2017-08-22T05:09:35.910Z,90.30
2017-08-22T05:12:04.352Z,90.30
2017-08-22T05:14:32.968Z,90.40
2017-08-22T05:17:01.385Z,90.20
2017-08-22T05:19:29.794Z,90.30
2017-08-22T05:21:58.408Z,90.40
2017-08-22T05:24:26.821Z,90.30
2017-08-22T05:26:55.253Z,90.40
2017-08-22T05:29:24.764Z,90.30
2017-08-22T05:31:53.199Z,90.20
2017-08-22T05:34:21.618Z,90.10
2017-08-22T05:36:50.416Z,89.90
2017-08-22T05:39:18.820Z,89.70
2017-08-22T05:41:47.249Z,90.00
2017-08-22T05:44:15.952Z,90.00
2017-08-22T05:46:44.373Z,89.80
2017-08-22T05:49:12.784Z,89.70
2017-08-22T05:51:41.394Z,89.90
2017-08-22T05:54:09.823Z,90.10
2017-08-22T05:56:38.245Z,90.00
2017-08-22T05:59:06.754Z,90.10
2017-08-22T06:01:35.171Z,90.10
2017-08-22T06:04:03.588Z,90.00
2017-08-22T06:06:32.172Z,90.10
2017-08-22T06:09:00.588Z,90.10
2017-08-22T06:11:29.026Z,89.40
2017-08-22T06:13:57.469Z,89.40
2017-08-22T06:16:25.917Z,89.10
2017-08-22T06:18:54.389Z,88.90
2017-08-22T06:21:23.004Z,88.70
2017-08-22T06:23:51.412Z,88.90
2017-08-22T06:26:20.620Z,89.70
2017-08-22T06:28:49.850Z,89.00
2017-08-22T06:31:18.277Z,89.00
2017-08-22T06:33:46.693Z,89.30
2017-08-22T06:36:15.273Z,89.10
2017-08-22T06:38:43.690Z,88.60
2017-08-22T06:41:12.113Z,88.60
2017-08-22T06:43:40.736Z,88.20
2017-08-22T06:46:09.161Z,87.60
2017-08-22T06:48:37.576Z,87.50
2017-08-22T06:51:06.021Z,87.90
2017-08-22T06:53:34.447Z,87.90
2017-08-22T06:56:02.899Z,87.90
2017-08-22T06:58:32.204Z,88.00
2017-08-22T07:01:00.628Z,88.10
2017-08-22T07:03:29.052Z,87.60
2017-08-22T07:05:57.649Z,87.80
2017-08-22T07:08:26.069Z,87.00
2017-08-22T07:10:54.489Z,85.80
2017-08-22T07:13:22.938Z,86.50
2017-08-22T07:15:51.342Z,86.80
2017-08-22T07:18:19.762Z,85.70
2017-08-22T07:20:48.209Z,84.80
2017-08-22T07:23:17.329Z,86.10
2017-08-22T07:25:45.758Z,85.20
2017-08-22T07:28:14.602Z,85.30
2017-08-22T07:30:43.013Z,84.40
2017-08-22T07:33:11.432Z,85.40
2017-08-22T07:35:39.892Z,85.20
2017-08-22T07:38:08.321Z,83.50
2017-08-22T07:40:36.738Z,85.90
2017-08-22T07:43:05.182Z,84.30
2017-08-22T07:45:34.665Z,82.60
2017-08-22T07:48:03.097Z,81.10
2017-08-22T07:50:31.724Z,81.80
2017-08-22T07:53:00.141Z,80.90
2017-08-22T07:55:28.568Z,80.60
2017-08-22T07:57:57.374Z,82.00
2017-08-22T08:00:25.797Z,81.70
2017-08-22T08:02:54.217Z,80.90
2017-08-22T08:05:22.665Z,80.40
2017-08-22T08:07:51.073Z,79.70
2017-08-22T08:10:19.480Z,78.70
2017-08-22T08:12:47.836Z,79.40
2017-08-22T08:15:16.339Z,79.50
2017-08-22T08:17:44.741Z,78.40
2017-08-22T08:20:13.372Z,76.30
2017-08-22T08:22:41.789Z,75.40
2017-08-22T08:25:09.516Z,75.00
2017-08-22T08:27:38.266Z,73.90
2017-08-22T08:30:06.680Z,72.00
2017-08-22T08:32:35.093Z,72.60
2017-08-22T08:35:03.549Z,72.40
2017-08-22T08:37:31.973Z,71.80
2017-08-22T08:40:00.396Z,70.50
2017-08-22T08:42:29.076Z,69.90
2017-08-22T08:44:57.508Z,68.40
2017-08-22T08:47:25.926Z,67.30
2017-08-22T08:49:54.368Z,65.50
2017-08-22T08:52:23.289Z,63.60
2017-08-22T08:54:51.697Z,63.00
2017-08-22T08:57:20.150Z,64.40
2017-08-22T08:59:48.581Z,62.70
2017-08-22T09:02:17.012Z,64.30
2017-08-22T09:04:45.588Z,62.10
2017-08-22T09:07:14.019Z,61.70
2017-08-22T09:09:42.443Z,61.50
2017-08-22T09:12:11.071Z,60.10
2017-08-22T09:14:39.493Z,59.10
2017-08-22T09:17:07.926Z,59.30
2017-08-22T09:19:37.412Z,58.30
2017-08-22T09:22:05.832Z,57.90
2017-08-22T09:24:34.268Z,58.10
2017-08-22T09:27:02.758Z,57.80
2017-08-22T09:29:31.188Z,57.60
2017-08-22T09:31:59.605Z,56.90
2017-08-22T09:34:28.945Z,56.00
2017-08-22T09:36:57.358Z,56.00
2017-08-22T09:39:25.776Z,54.60
2017-08-22T09:41:54.380Z,55.50
2017-08-22T09:44:22.906Z,55.50
2017-08-22T09:46:51.364Z,55.00
2017-08-22T09:49:20.221Z,55.20
2017-08-22T09:51:48.660Z,53.80
2017-08-22T09:54:17.065Z,54.00
2017-08-22T09:56:45.772Z,53.60
2017-08-22T09:59:57.032Z,54.10
2017-08-22T10:02:25.716Z,53.90
2017-08-22T10:04:54.152Z,51.70
2017-08-22T10:07:22.581Z,50.10
2017-08-22T10:09:51.049Z,51.10
2017-08-22T10:12:19.493Z,51.40
2017-08-22T10:14:47.904Z,50.70
2017-08-22T10:17:16.400Z,50.60
2017-08-22T10:19:44.858Z,48.80
2017-08-22T10:22:13.310Z,49.10
2017-08-22T10:24:41.617Z,48.80
2017-08-22T10:27:10.109Z,48.80
2017-08-22T10:29:38.577Z,48.50
2017-08-22T10:32:07.068Z,47.80
2017-08-22T10:34:35.504Z,48.60
2017-08-22T10:37:04.048Z,48.50
2017-08-22T10:39:32.517Z,47.20
2017-08-22T10:42:00.945Z,48.20
2017-08-22T10:44:29.365Z,46.40
2017-08-22T10:46:58.975Z,49.00
2017-08-22T10:49:28.357Z,49.00
2017-08-22T10:51:56.760Z,49.00
2017-08-22T10:54:25.347Z,49.30
2017-08-22T10:56:53.792Z,50.10
2017-08-22T10:59:22.214Z,50.00
2017-08-22T11:01:50.879Z,51.30
2017-08-22T11:04:19.293Z,52.40
2017-08-22T11:06:47.717Z,53.90
2017-08-22T11:09:17.225Z,54.00
2017-08-22T11:11:45.632Z,54.00
2017-08-22T11:14:14.062Z,54.10
2017-08-22T11:16:42.671Z,52.90
2017-08-22T11:19:11.092Z,52.90
2017-08-22T11:21:40.193Z,52.50
2017-08-22T11:24:08.705Z,50.60
2017-08-22T11:26:37.105Z,49.50
2017-08-22T11:29:05.540Z,53.30
2017-08-22T11:31:34.168Z,53.50
2017-08-22T11:34:02.604Z,50.90
2017-08-22T11:36:31.022Z,52.30
2017-08-22T11:38:59.585Z,52.40
2017-08-22T11:41:28.057Z,51.10
2017-08-22T11:43:56.521Z,49.60
2017-08-22T11:46:27.401Z,50.20
2017-08-22T11:48:55.867Z,50.10
2017-08-22T11:51:24.320Z,51.20
2017-08-22T11:53:52.751Z,51.60
2017-08-22T11:56:21.172Z,51.20
2017-08-22T11:58:49.834Z,49.40
2017-08-22T12:01:18.250Z,49.30
2017-08-22T12:03:46.688Z,48.50
2017-08-22T12:06:15.173Z,51.00
2017-08-22T12:08:43.599Z,52.00
2017-08-22T12:11:12.008Z,52.50
2017-08-22T12:13:40.779Z,50.10
2017-08-22T12:16:09.205Z,51.70
2017-08-22T12:18:37.441Z,52.30
2017-08-22T12:21:05.917Z,50.50
2017-08-22T12:23:34.838Z,52.00
2017-08-22T12:26:03.301Z,51.70
2017-08-22T12:28:31.740Z,52.10
2017-08-22T12:31:00.156Z,50.10
2017-08-22T12:33:28.595Z,50.30
2017-08-22T12:35:57.033Z,52.50
2017-08-22T12:38:25.449Z,52.50
2017-08-22T12:40:53.952Z,51.70
2017-08-22T12:43:22.408Z,51.70
2017-08-22T12:45:51.162Z,51.70
2017-08-22T12:48:19.590Z,52.10
2017-08-22T12:50:48.035Z,52.00
2017-08-22T12:53:16.453Z,50.90
2017-08-22T12:55:44.869Z,51.70
2017-08-22T12:58:13.145Z,52.20
2017-08-22T13:00:41.548Z,51.70
2017-08-22T13:03:09.972Z,52.00
2017-08-22T13:05:39.774Z,52.10
2017-08-22T13:08:08.201Z,53.20
2017-08-22T13:10:36.625Z,50.10
2017-08-22T13:13:05.065Z,50.60
2017-08-22T13:15:33.484Z,51.30
2017-08-22T13:18:01.916Z,51.90
2017-08-22T13:20:30.348Z,52.70
2017-08-22T13:22:58.762Z,52.10
2017-08-22T13:25:27.173Z,52.20
2017-08-22T13:27:55.601Z,49.20
2017-08-22T13:30:24.023Z,51.00
2017-08-22T13:32:52.442Z,51.50
2017-08-22T13:35:20.969Z,51.70
2017-08-22T13:37:49.414Z,50.40
2017-08-22T13:40:18.534Z,51.50
2017-08-22T13:42:47.003Z,51.10
2017-08-22T13:45:15.429Z,51.40
2017-08-22T13:47:43.861Z,51.20
2017-08-22T13:50:12.322Z,49.40
2017-08-22T13:52:41.512Z,50.30
2017-08-22T13:55:09.916Z,50.20
2017-08-22T13:57:38.355Z,50.50
2017-08-22T14:00:06.769Z,50.80
2017-08-22T14:02:35.177Z,50.90
2017-08-22T14:05:03.625Z,51.40
2017-08-22T14:07:32.041Z,51.60
2017-08-22T14:10:00.447Z,51.40
2017-08-22T14:12:28.887Z,51.10
2017-08-22T14:14:57.308Z,51.40
2017-08-22T14:17:25.722Z,51.40
2017-08-22T14:19:54.183Z,51.40
2017-08-22T14:22:22.677Z,51.40
2017-08-22T14:24:51.093Z,51.60
2017-08-22T14:27:19.532Z,51.80
2017-08-22T14:29:47.955Z,51.80
2017-08-22T14:32:16.381Z,51.60
2017-08-22T14:34:44.840Z,51.40
2017-08-22T14:37:13.077Z,51.70
2017-08-22T14:39:41.661Z,51.10
2017-08-22T14:42:10.107Z,51.50
2017-08-22T14:44:38.589Z,51.30
2017-08-22T14:47:07.043Z,50.10
2017-08-22T14:49:35.574Z,51.40
2017-08-22T14:52:03.980Z,51.70
2017-08-22T14:54:32.393Z,51.80
2017-08-22T14:57:00.822Z,51.80
2017-08-22T14:59:29.237Z,51.60
2017-08-22T15:01:57.753Z,52.10
2017-08-22T15:04:26.361Z,52.20
2017-08-22T15:06:55.464Z,52.20
2017-08-22T15:09:23.872Z,51.90
2017-08-22T15:11:52.348Z,51.80
2017-08-22T15:14:21.440Z,51.00
2017-08-22T15:16:49.669Z,50.50
2017-08-22T15:19:18.088Z,48.00
2017-08-22T15:21:46.646Z,48.90
2017-08-22T15:24:15.057Z,49.40
2017-08-22T15:26:43.554Z,50.40
2017-08-22T15:29:11.981Z,50.70
2017-08-22T15:31:40.389Z,51.10
2017-08-22T15:34:08.825Z,50.80
2017-08-22T15:36:37.245Z,51.00
2017-08-22T15:39:05.312Z,51.30
2017-08-22T15:41:33.760Z,51.50
2017-08-22T15:44:02.195Z,51.40
2017-08-22T15:46:30.589Z,51.60
2017-08-22T15:48:59.031Z,51.60
2017-08-22T15:51:27.087Z,52.40
2017-08-22T15:53:55.504Z,52.60
2017-08-22T15:56:24.211Z,53.00
2017-08-22T15:58:52.634Z,53.00
2017-08-22T16:01:21.343Z,53.00
2017-08-22T16:03:49.829Z,52.90
2017-08-22T16:06:18.247Z,53.40
2017-08-22T16:08:46.681Z,53.00
2017-08-22T16:11:15.117Z,52.70
2017-08-22T16:13:43.654Z,52.40
2017-08-22T16:16:12.080Z,52.30
2017-08-22T16:18:40.516Z,52.50
2017-08-22T16:21:08.942Z,52.60
2017-08-22T16:23:37.499Z,52.40
2017-08-22T16:26:06.217Z,52.50
2017-08-22T16:28:35.673Z,53.20
2017-08-22T16:31:04.100Z,53.40
2017-08-22T16:33:32.572Z,52.40
2017-08-22T16:36:01.388Z,52.10
2017-08-22T16:38:30.488Z,53.00
2017-08-22T16:40:58.938Z,53.70
2017-08-22T16:43:27.349Z,54.20
2017-08-22T16:45:55.794Z,54.20
2017-08-22T16:48:24.355Z,54.20
2017-08-22T16:50:52.973Z,53.30
2017-08-22T16:53:21.481Z,53.90
2017-08-22T16:55:50.730Z,54.50
2017-08-22T16:58:19.552Z,54.40
2017-08-22T17:00:48.191Z,54.00
2017-08-22T17:03:16.844Z,54.20
2017-08-22T17:05:45.317Z,54.30
2017-08-22T17:08:13.737Z,53.90
2017-08-22T17:10:42.169Z,53.10
2017-08-22T17:13:10.592Z,53.70
2017-08-22T17:15:39.444Z,54.20
2017-08-22T17:18:08.114Z,53.70
2017-08-22T17:20:36.536Z,54.40
2017-08-22T17:23:04.948Z,54.50
2017-08-22T17:25:33.411Z,54.90
2017-08-22T17:28:02.216Z,54.50
2017-08-22T17:30:30.953Z,54.30
2017-08-22T17:32:59.486Z,54.40
2017-08-22T17:35:27.912Z,54.60
2017-08-22T17:37:56.356Z,54.00
2017-08-22T17:40:24.853Z,53.80
2017-08-22T17:42:53.285Z,55.30
2017-08-22T17:45:21.995Z,55.40
2017-08-22T17:47:50.571Z,54.60
2017-08-22T17:50:19.057Z,55.20
2017-08-22T17:52:47.119Z,54.60
2017-08-22T17:55:15.915Z,54.60
2017-08-22T17:57:44.547Z,55.60
2017-08-22T18:00:12.963Z,56.20
2017-08-22T18:02:41.421Z,57.60
2017-08-22T18:05:09.847Z,58.00
2017-08-22T18:07:38.292Z,58.50
2017-08-22T18:10:06.742Z,58.00
2017-08-22T18:12:35.162Z,58.40
2017-08-22T18:15:03.588Z,59.30
2017-08-22T18:17:32.041Z,59.10
2017-08-22T18:20:00.457Z,59.10
2017-08-22T18:22:28.920Z,58.90
2017-08-22T18:24:58.799Z,58.70
2017-08-22T18:27:27.298Z,58.20
2017-08-22T18:29:55.795Z,59.00
2017-08-22T18:32:24.214Z,58.10
2017-08-22T18:34:52.630Z,58.30
2017-08-22T18:37:21.063Z,59.50
2017-08-22T18:39:50.304Z,58.90
2017-08-22T18:42:18.729Z,59.90
2017-08-22T18:44:47.172Z,60.50
2017-08-22T18:47:15.589Z,60.60
2017-08-22T18:49:44.025Z,60.90
2017-08-22T18:52:12.469Z,61.90
2017-08-22T18:54:40.901Z,61.70
2017-08-22T18:57:09.356Z,61.60
2017-08-22T18:59:37.782Z,61.70
2017-08-22T19:02:06.209Z,63.00
2017-08-22T19:04:34.637Z,62.90
2017-08-22T19:07:03.149Z,63.20
2017-08-22T19:09:31.587Z,63.70
2017-08-22T19:12:00.009Z,63.90
2017-08-22T19:14:28.473Z,64.90
2017-08-22T19:16:56.918Z,64.40
2017-08-22T19:19:25.356Z,64.90
2017-08-22T19:21:53.817Z,65.30
2017-08-22T19:24:22.287Z,65.60
2017-08-22T19:26:50.713Z,65.50
2017-08-22T19:29:19.884Z,66.10
2017-08-22T19:31:48.352Z,66.10
2017-08-22T19:34:16.772Z,66.20
2017-08-22T19:36:45.970Z,67.40
2017-08-22T19:39:15.198Z,68.60
2017-08-22T19:41:43.622Z,68.50
2017-08-22T19:44:12.829Z,69.60
2017-08-22T19:46:41.248Z,69.60
2017-08-22T19:49:10.465Z,69.40
2017-08-22T19:51:38.897Z,69.30
2017-08-22T19:54:08.136Z,69.20
2017-08-22T19:56:36.594Z,69.20
2017-08-22T19:59:05.052Z,69.30
2017-08-22T20:01:33.504Z,69.10
2017-08-22T20:04:01.975Z,69.10
2017-08-22T20:06:30.371Z,69.20
2017-08-22T20:08:58.819Z,69.10
2017-08-22T20:11:27.243Z,69.40
2017-08-22T20:13:55.695Z,69.30
2017-08-22T20:16:24.152Z,68.30
2017-08-22T20:18:53.466Z,68.20
2017-08-22T20:21:21.899Z,68.10
2017-08-22T20:23:51.155Z,68.00
2017-08-22T20:26:19.604Z,68.00
2017-08-22T20:28:48.072Z,68.10
2017-08-22T20:31:16.558Z,68.50
2017-08-22T20:33:45.048Z,68.60
2017-08-22T20:36:14.315Z,69.00
2017-08-22T20:38:42.761Z,68.70
2017-08-22T20:41:11.182Z,68.80
2017-08-22T20:43:39.651Z,68.80
2017-08-22T20:46:08.163Z,68.80
2017-08-22T20:48:36.626Z,69.10
2017-08-22T20:51:05.088Z,69.00
2017-08-22T20:53:33.598Z,69.10
2017-08-22T20:56:02.030Z,69.20
2017-08-22T20:58:30.553Z,69.20
2017-08-22T21:00:58.976Z,69.10
2017-08-22T21:03:27.496Z,69.30
2017-08-22T21:05:56.672Z,69.70
2017-08-22T21:08:25.080Z,69.80
2017-08-22T21:10:53.527Z,69.80
2017-08-22T21:13:21.974Z,70.10
2017-08-22T21:15:50.417Z,70.30
2017-08-22T21:18:18.809Z,70.10
2017-08-22T21:20:47.327Z,70.10
2017-08-22T21:23:15.760Z,70.30
2017-08-22T21:25:44.192Z,70.70
2017-08-22T21:28:12.626Z,71.10
2017-08-22T21:30:41.033Z,71.20
2017-08-22T21:33:10.245Z,71.60
2017-08-22T21:35:38.681Z,71.00
2017-08-22T21:38:07.100Z,71.40
2017-08-22T21:40:35.525Z,71.80
2017-08-22T21:43:03.950Z,71.70
2017-08-22T21:45:32.395Z,71.70
2017-08-22T21:48:00.833Z,72.10
2017-08-22T21:50:29.272Z,71.60
2017-08-22T21:52:57.693Z,72.40
2017-08-22T21:55:26.237Z,71.20
2017-08-22T21:57:54.669Z,72.50
2017-08-22T22:00:23.093Z,72.80
2017-08-22T22:02:51.496Z,73.10
2017-08-22T22:05:19.943Z,73.20
2017-08-22T22:07:48.367Z,72.70
2017-08-22T22:10:16.804Z,73.00
2017-08-22T22:12:45.929Z,73.30
2017-08-22T22:15:14.385Z,73.50
2017-08-22T22:17:42.804Z,74.40
2017-08-22T22:20:11.237Z,74.50
2017-08-22T22:22:39.686Z,74.70
2017-08-22T22:25:08.149Z,73.80
2017-08-22T22:27:37.380Z,73.80
2017-08-22T22:30:05.904Z,73.60
2017-08-22T22:32:35.178Z,73.70
2017-08-22T22:35:03.629Z,73.90
2017-08-22T22:37:32.067Z,74.30
2017-08-22T22:40:00.482Z,73.90
2017-08-22T22:42:28.989Z,74.00
2017-08-22T22:44:57.443Z,73.90
2017-08-22T22:47:25.869Z,74.00
2017-08-22T22:49:54.319Z,74.40
2017-08-22T22:52:22.769Z,74.40
2017-08-22T22:54:51.189Z,74.50
2017-08-22T22:57:19.648Z,74.30
2017-08-22T22:59:48.091Z,74.60
2017-08-22T23:02:16.688Z,74.60
2017-08-22T23:04:45.899Z,74.60
2017-08-22T23:07:14.319Z,74.60
2017-08-22T23:09:43.436Z,74.40
2017-08-22T23:12:11.880Z,74.50
2017-08-22T23:14:40.304Z,75.30
2017-08-22T23:17:08.732Z,74.70
2017-08-22T23:19:37.843Z,75.00
2017-08-22T23:22:06.243Z,75.20
2017-08-22T23:24:34.675Z,75.40
2017-08-22T23:27:03.160Z,75.70
2017-08-22T23:29:32.047Z,75.80
2017-08-22T23:32:00.466Z,75.70
2017-08-22T23:34:28.912Z,76.00
2017-08-22T23:36:57.324Z,76.10
2017-08-22T23:39:25.749Z,76.20
2017-08-22T23:41:54.209Z,76.70
2017-08-22T23:44:22.673Z,76.70
2017-08-22T23:46:51.108Z,77.20
2017-08-22T23:49:19.591Z,76.70
2017-08-22T23:51:48.015Z,77.00
2017-08-22T23:54:16.454Z,77.40
2017-08-22T23:56:44.928Z,77.40
2017-08-22T23:59:13.342Z,77.70
